createdAt,value
2019-04-29T00:02:54.306Z,62.33
2019-04-29T00:07:46.585Z,53.60
2019-04-29T00:12:39.911Z,20.93
2019-04-29T00:17:36.624Z,20.10
2019-04-29T00:22:29.010Z,21.33
2019-04-29T00:27:21.399Z,44.40
2019-04-29T00:32:14.240Z,54.57
2019-04-29T00:37:16.977Z,38.70
2019-04-29T00:42:13.533Z,25.53
2019-04-29T00:47:10.704Z,12.60
2019-04-29T00:52:03.605Z,30.43
2019-04-29T00:56:56.059Z,24.03
2019-04-29T01:01:48.784Z,25.07
2019-04-29T01:06:41.223Z,41.47
2019-04-29T01:11:34.499Z,49.50
2019-04-29T01:16:27.409Z,52.03
2019-04-29T01:21:19.994Z,55.47
2019-04-29T01:26:26.131Z,31.00
2019-04-29T01:31:20.680Z,42.43
2019-04-29T01:36:17.379Z,37.03
2019-04-29T01:41:20.296Z,19.33
2019-04-29T01:46:12.709Z,25.17
2019-04-29T01:51:05.264Z,28.03
2019-04-29T01:55:57.261Z,36.40
2019-04-29T02:00:49.691Z,20.20
2019-04-29T02:05:42.615Z,23.60
2019-04-29T02:10:35.575Z,40.30
2019-04-29T02:15:27.931Z,44.10
2019-04-29T02:20:20.292Z,40.20
2019-04-29T02:25:14.633Z,28.57
2019-04-29T02:30:07.850Z,29.93
2019-04-29T02:35:00.020Z,32.47
2019-04-29T02:39:54.004Z,35.57
2019-04-29T02:44:46.773Z,35.27
2019-04-29T02:49:38.872Z,92.20
2019-04-29T02:54:31.641Z,31.27
2019-04-29T02:59:25.765Z,95.83
2019-04-29T03:04:19.656Z,51.07
2019-04-29T03:09:12.440Z,56.07
2019-04-29T03:14:04.698Z,31.17
2019-04-29T03:18:59.201Z,47.97
2019-04-29T03:23:51.332Z,25.83
2019-04-29T03:28:43.638Z,55.90
2019-04-29T03:33:36.089Z,40.40
2019-04-29T03:38:28.359Z,46.33
2019-04-29T03:43:21.348Z,52.87
2019-04-29T03:48:13.286Z,46.77
2019-04-29T03:53:05.656Z,41.50
2019-04-29T03:57:58.346Z,42.20
2019-04-29T04:02:52.425Z,79.30
2019-04-29T04:07:52.558Z,92.67
2019-04-29T04:12:45.044Z,90.47
2019-04-29T04:17:41.709Z,67.33
2019-04-29T04:22:46.835Z,65.20
2019-04-29T04:27:39.235Z,42.90
2019-04-29T04:32:31.695Z,43.33
2019-04-29T04:37:24.203Z,74.23
2019-04-29T04:42:16.851Z,60.73
2019-04-29T04:47:09.221Z,36.50
2019-04-29T04:52:01.772Z,17.80
2019-04-29T04:56:54.193Z,37.73
2019-04-29T05:01:46.646Z,23.10
2019-04-29T05:06:38.764Z,31.90
2019-04-29T05:11:31.125Z,38.00
2019-04-29T05:16:23.881Z,25.07
2019-04-29T05:21:16.512Z,52.00
2019-04-29T05:26:09.104Z,59.90
2019-04-29T05:31:01.701Z,58.43
2019-04-29T05:36:03.478Z,23.53
2019-04-29T05:40:57.063Z,51.57
2019-04-29T05:45:57.260Z,32.10
2019-04-29T05:50:52.154Z,28.03
2019-04-29T05:55:45.444Z,29.20
2019-04-29T06:00:37.735Z,22.70
2019-04-29T06:05:30.263Z,19.90
2019-04-29T06:10:24.348Z,35.83
2019-04-29T06:15:16.754Z,16.53
2019-04-29T06:20:13.194Z,34.87
2019-04-29T06:25:03.654Z,16.33
2019-04-29T06:29:58.579Z,25.00
2019-04-29T06:34:49.865Z,24.43
2019-04-29T06:39:41.889Z,21.97
2019-04-29T06:44:34.503Z,36.97
2019-04-29T06:49:27.156Z,27.00
2019-04-29T06:54:19.571Z,31.40
2019-04-29T06:59:12.381Z,24.43
2019-04-29T07:04:05.684Z,49.00
2019-04-29T07:08:58.236Z,39.90
2019-04-29T07:13:53.494Z,32.70
2019-04-29T07:18:48.338Z,37.87
2019-04-29T07:23:38.661Z,31.03
2019-04-29T07:28:30.624Z,33.00
2019-04-29T07:33:24.517Z,32.50
2019-04-29T07:38:17.190Z,25.77
2019-04-29T07:43:09.755Z,24.93
2019-04-29T07:48:06.477Z,19.27
2019-04-29T07:52:56.359Z,25.27
2019-04-29T07:57:52.124Z,20.37
2019-04-29T08:02:43.296Z,18.43
2019-04-29T08:07:37.826Z,14.77
2019-04-29T08:12:32.827Z,15.00
2019-04-29T08:17:25.237Z,15.47
2019-04-29T08:22:18.319Z,15.80
2019-04-29T08:27:11.263Z,16.93
2019-04-29T08:32:03.767Z,14.53
2019-04-29T08:36:55.844Z,12.88
2019-04-29T08:41:48.102Z,17.20
2019-04-29T08:46:51.752Z,11.18
2019-04-29T08:51:41.861Z,12.05
2019-04-29T08:56:34.378Z,13.45
2019-04-29T09:01:29.350Z,11.10
2019-04-29T09:06:20.580Z,11.08
2019-04-29T09:11:14.561Z,14.35
2019-04-29T09:16:07.107Z,10.98
2019-04-29T09:20:59.200Z,10.65
2019-04-29T09:26:02.559Z,8.93
2019-04-29T09:30:47.933Z,17.40
2019-04-29T09:35:40.672Z,7.37
2019-04-29T09:40:34.436Z,12.05
2019-04-29T09:45:31.211Z,8.10
2019-04-29T09:50:23.641Z,6.90
2019-04-29T09:55:17.751Z,8.93
2019-04-29T10:00:12.902Z,5.15
2019-04-29T10:05:08.239Z,7.53
2019-04-29T10:10:02.509Z,5.95
2019-04-29T10:14:55.377Z,5.42
2019-04-29T10:19:49.800Z,5.30
2019-04-29T10:24:42.308Z,6.20
2019-04-29T10:29:35.316Z,4.67
2019-04-29T10:34:31.529Z,5.28
2019-04-29T10:39:42.485Z,6.20
2019-04-29T10:44:53.072Z,6.30
2019-04-29T10:49:49.658Z,4.08
2019-04-29T10:54:40.905Z,5.30
2019-04-29T10:59:36.263Z,3.95
2019-04-29T11:04:31.683Z,4.92
2019-04-29T11:09:26.654Z,4.35
2019-04-29T11:14:18.767Z,4.05
2019-04-29T11:19:11.256Z,32.83
2019-04-29T11:24:08.032Z,2.87
2019-04-29T11:29:00.684Z,4.08
2019-04-29T11:33:55.018Z,4.55
2019-04-29T11:38:46.943Z,5.87
2019-04-29T11:43:39.607Z,4.25
2019-04-29T11:48:31.972Z,5.70
2019-04-29T11:53:25.027Z,3.72
2019-04-29T11:58:19.146Z,4.20
2019-04-29T12:03:19.004Z,3.85
2019-04-29T12:08:18.250Z,7.95
2019-04-29T12:13:11.221Z,6.50
2019-04-29T12:18:17.435Z,3.55
2019-04-29T12:23:11.047Z,4.10
2019-04-29T12:28:18.943Z,6.05
2019-04-29T12:33:07.417Z,10.15
2019-04-29T12:38:11.201Z,5.72
2019-04-29T12:43:21.662Z,3.98
2019-04-29T12:48:24.373Z,7.72
2019-04-29T12:53:11.003Z,7.10
2019-04-29T12:58:02.660Z,4.42
2019-04-29T13:03:11.753Z,3.62
2019-04-29T13:08:05.800Z,8.35
2019-04-29T13:12:58.489Z,6.72
2019-04-29T13:18:03.109Z,3.77
2019-04-29T13:22:46.519Z,6.10
2019-04-29T13:27:39.003Z,5.35
2019-04-29T13:32:35.401Z,4.28
2019-04-29T13:37:25.567Z,4.70
2019-04-29T13:42:18.034Z,4.65
2019-04-29T13:47:29.096Z,7.28
2019-04-29T13:52:21.200Z,5.72
2019-04-29T13:57:16.048Z,4.40
2019-04-29T14:02:12.345Z,4.40
2019-04-29T14:07:04.909Z,8.33
2019-04-29T14:12:02.924Z,4.40
2019-04-29T14:17:08.067Z,8.70
2019-04-29T14:21:45.580Z,15.83
2019-04-29T14:26:42.007Z,5.05
2019-04-29T14:31:31.955Z,7.08
2019-04-29T14:36:26.224Z,8.05
2019-04-29T14:41:19.382Z,11.40
2019-04-29T14:46:23.462Z,4.92
2019-04-29T14:51:16.046Z,4.42
2019-04-29T14:56:08.289Z,5.58
2019-04-29T15:01:03.100Z,5.95
2019-04-29T15:05:55.966Z,4.47
2019-04-29T15:10:50.143Z,6.67
2019-04-29T15:15:44.172Z,9.48
2019-04-29T15:20:41.133Z,2.67
2019-04-29T15:25:33.644Z,3.37
2019-04-29T15:30:26.456Z,2.80
2019-04-29T15:35:19.896Z,6.97
2019-04-29T15:40:14.169Z,3.55
2019-04-29T15:45:07.544Z,21.27
2019-04-29T15:50:00.795Z,8.60
2019-04-29T15:54:53.420Z,8.20
2019-04-29T16:04:41.486Z,4.15
2019-04-29T16:09:51.268Z,4.80
2019-04-29T16:14:29.194Z,4.53
2019-04-29T16:19:21.405Z,3.45
2019-04-29T16:24:26.452Z,3.47
2019-04-29T16:29:13.327Z,6.85
2019-04-29T16:34:02.200Z,4.42
2019-04-29T16:43:58.973Z,5.05
2019-04-29T16:48:51.340Z,7.12
2019-04-29T16:53:43.626Z,5.15
2019-04-29T16:58:36.160Z,2.98
2019-04-29T17:03:28.479Z,3.40
2019-04-29T17:08:22.790Z,4.97
2019-04-29T17:13:23.438Z,5.83
2019-04-29T17:18:11.025Z,7.90
2019-04-29T17:23:03.529Z,10.15
2019-04-29T17:28:00.564Z,9.63
2019-04-29T17:33:00.733Z,10.18
2019-04-29T17:35:18.696Z,4.55
2019-04-29T17:37:53.737Z,5.50
2019-04-29T17:42:48.057Z,6.37
2019-04-29T17:47:49.146Z,5.30
2019-04-29T17:52:41.416Z,3.55
2019-04-29T17:57:41.992Z,8.68
2019-04-29T18:02:57.356Z,19.30
2019-04-29T18:07:56.806Z,6.53
2019-04-29T18:12:49.329Z,6.15
2019-04-29T18:17:41.671Z,4.05
2019-04-29T18:22:52.096Z,3.20
2019-04-29T18:27:49.067Z,7.67
2019-04-29T18:32:42.218Z,5.42
2019-04-29T18:37:36.977Z,5.30
2019-04-29T18:42:28.109Z,5.65
2019-04-29T18:47:22.982Z,5.70
2019-04-29T18:52:23.839Z,8.70
2019-04-29T18:57:08.399Z,7.25
2019-04-29T19:02:07.843Z,6.55
2019-04-29T19:06:59.403Z,38.45
2019-04-29T19:11:49.829Z,19.00
2019-04-29T19:16:42.356Z,7.20
2019-04-29T19:21:34.923Z,12.65
2019-04-29T19:26:27.630Z,10.93
2019-04-29T19:31:20.033Z,12.28
2019-04-29T19:36:17.466Z,11.80
2019-04-29T19:41:06.810Z,8.28
2019-04-29T19:45:58.868Z,10.88
2019-04-29T19:51:13.602Z,14.00
2019-04-29T19:55:45.768Z,9.25
2019-04-29T20:00:39.400Z,7.72
2019-04-29T20:05:39.839Z,10.25
2019-04-29T20:10:31.728Z,10.88
2019-04-29T20:15:25.945Z,10.43
2019-04-29T20:20:20.443Z,12.82
2019-04-29T20:25:12.864Z,11.03
2019-04-29T20:30:16.696Z,9.30
2019-04-29T20:35:07.044Z,8.03
2019-04-29T20:40:00.475Z,6.40
2019-04-29T20:44:50.353Z,7.58
2019-04-29T20:49:43.842Z,7.97
2019-04-29T20:54:37.095Z,7.42
2019-04-29T20:59:29.671Z,8.58
2019-04-29T21:04:33.799Z,8.63
2019-04-29T21:09:22.222Z,10.82
2019-04-29T21:14:19.082Z,10.85
2019-04-29T21:19:11.500Z,10.25
2019-04-29T21:24:08.471Z,10.15
2019-04-29T21:28:59.254Z,10.03
2019-04-29T21:33:55.334Z,11.60
2019-04-29T21:39:05.967Z,10.38
2019-04-29T21:43:57.631Z,9.85
2019-04-29T21:48:49.943Z,10.18
2019-04-29T21:53:42.278Z,8.33
2019-04-29T21:58:35.132Z,10.50
2019-04-29T22:03:28.058Z,10.15
2019-04-29T22:08:25.013Z,16.00
2019-04-29T22:13:14.962Z,17.87
2019-04-29T22:18:13.914Z,13.03
2019-04-29T22:23:01.594Z,15.90
2019-04-29T22:27:55.374Z,12.53
2019-04-29T22:32:51.801Z,10.40
2019-04-29T22:37:45.048Z,9.48
2019-04-29T22:43:04.600Z,8.38
2019-04-29T22:47:49.528Z,9.23
2019-04-29T22:52:41.724Z,11.38
2019-04-29T22:57:34.657Z,10.50
2019-04-29T23:02:28.382Z,9.83
2019-04-29T23:07:22.267Z,10.65
2019-04-29T23:12:18.544Z,8.60
2019-04-29T23:17:12.269Z,8.68
2019-04-29T23:22:22.331Z,8.55
2019-04-29T23:27:16.316Z,8.10
2019-04-29T23:32:10.371Z,8.65
2019-04-29T23:37:03.039Z,8.20
2019-04-29T23:41:55.596Z,7.45
2019-04-29T23:46:47.790Z,14.35
2019-04-29T23:51:40.081Z,12.30
2019-04-29T23:56:38.477Z,9.40
